createdAt,value
2023-01-08T09:08:29.074Z,998.23
2023-01-08T09:09:28.939Z,998.27
2023-01-08T09:10:28.923Z,998.24
2023-01-08T09:11:28.898Z,998.19
2023-01-08T09:12:28.898Z,998.20
2023-01-08T09:13:28.909Z,998.18
2023-01-08T09:14:28.875Z,998.15
2023-01-08T09:15:28.870Z,998.14
2023-01-08T09:16:28.925Z,998.13
2023-01-08T09:17:28.836Z,998.09
2023-01-08T09:18:28.829Z,998.08
2023-01-08T09:19:28.812Z,998.09
2023-01-08T09:20:28.795Z,998.10
2023-01-08T09:21:28.802Z,998.03
2023-01-08T09:22:28.795Z,998.08
2023-01-08T09:23:28.790Z,998.03
2023-01-08T09:24:28.869Z,998.01
2023-01-08T09:25:28.754Z,998.00
2023-01-08T09:26:28.788Z,997.95
2023-01-08T09:27:28.720Z,997.93
2023-01-08T09:28:28.732Z,997.95
2023-01-08T09:29:28.710Z,997.97
2023-01-08T09:30:28.699Z,998.00
2023-01-08T09:31:28.755Z,998.02
2023-01-08T09:32:28.660Z,998.01
2023-01-08T09:33:28.685Z,997.97
2023-01-08T09:34:28.638Z,998.01
2023-01-08T09:35:28.628Z,997.96
2023-01-08T09:36:28.615Z,997.95
2023-01-08T09:37:28.613Z,997.99
2023-01-08T09:38:30.006Z,997.96
2023-01-08T09:39:28.581Z,997.96
2023-01-08T09:40:28.702Z,997.97
2023-01-08T09:41:28.733Z,997.97
2023-01-08T09:42:28.548Z,997.99
2023-01-08T09:43:28.567Z,998.01
2023-01-08T09:44:28.522Z,998.03
2023-01-08T09:45:29.268Z,998.03
2023-01-08T09:46:28.622Z,998.04
2023-01-08T09:47:28.520Z,998.03
2023-01-08T09:48:28.499Z,998.05
2023-01-08T09:49:28.484Z,998.06
2023-01-08T09:50:28.479Z,998.01
2023-01-08T09:51:28.446Z,998.02
2023-01-08T09:52:28.430Z,997.99
2023-01-08T09:53:28.441Z,997.99
2023-01-08T09:54:28.427Z,998.01
2023-01-08T09:55:28.415Z,998.04
2023-01-08T09:56:28.504Z,998.02
2023-01-08T09:57:28.392Z,998.02
2023-01-08T09:58:28.392Z,997.98
2023-01-08T09:59:28.373Z,997.99
2023-01-08T10:00:28.443Z,998.02
2023-01-08T10:01:28.489Z,998.04
2023-01-08T10:02:28.513Z,998.01
2023-01-08T10:03:28.323Z,998.01
2023-01-08T10:04:28.306Z,997.96
2023-01-08T10:05:28.285Z,997.98
2023-01-08T10:06:28.271Z,997.96
2023-01-08T10:07:28.271Z,997.89
2023-01-08T10:08:28.277Z,997.89
2023-01-08T10:09:28.281Z,997.92
2023-01-08T10:10:28.237Z,997.89
2023-01-08T10:11:28.239Z,997.85
2023-01-08T10:12:28.350Z,997.80
2023-01-08T10:13:28.225Z,997.80
2023-01-08T10:14:28.191Z,997.82
2023-01-08T10:15:28.172Z,997.76
2023-01-08T10:16:28.204Z,997.73
2023-01-08T10:17:28.157Z,997.67
2023-01-08T10:18:28.163Z,997.73
2023-01-08T10:19:28.134Z,997.82
2023-01-08T10:20:28.114Z,997.64
2023-01-08T10:21:28.102Z,997.64
2023-01-08T10:22:28.086Z,997.55
2023-01-08T10:23:28.108Z,997.46
2023-01-08T10:24:28.078Z,997.44
2023-01-08T10:25:28.057Z,997.36
2023-01-08T10:26:28.053Z,997.43
2023-01-08T10:27:28.039Z,997.40
2023-01-08T10:28:28.059Z,997.32
2023-01-08T10:29:28.011Z,997.35
2023-01-08T10:30:28.019Z,997.30
2023-01-08T10:31:28.012Z,997.30
2023-01-08T10:32:27.988Z,997.26
2023-01-08T10:33:27.981Z,997.26
2023-01-08T10:34:27.957Z,997.25
2023-01-08T10:35:27.942Z,997.37
2023-01-08T10:36:27.926Z,997.27
2023-01-08T10:37:27.948Z,997.24
2023-01-08T10:38:27.920Z,997.26
2023-01-08T10:39:27.912Z,997.24
2023-01-08T10:40:27.900Z,997.25
2023-01-08T10:41:27.874Z,997.24
2023-01-08T10:42:27.858Z,997.25
2023-01-08T10:43:27.881Z,997.22
2023-01-08T10:44:27.873Z,997.19
2023-01-08T10:45:27.939Z,997.17
2023-01-08T10:46:27.829Z,997.14
2023-01-08T10:47:27.819Z,997.14
2023-01-08T10:48:27.808Z,997.06
2023-01-08T10:49:27.800Z,997.10
2023-01-08T10:50:27.788Z,997.01
2023-01-08T10:51:27.775Z,997.01
2023-01-08T10:52:27.765Z,996.96
2023-01-08T10:53:27.755Z,996.99
2023-01-08T10:54:27.742Z,996.99
2023-01-08T10:55:27.768Z,996.95
2023-01-08T10:56:27.711Z,996.92
2023-01-08T10:57:27.700Z,996.84
2023-01-08T10:58:27.692Z,996.96
2023-01-08T10:59:27.671Z,996.92
2023-01-08T11:00:27.691Z,996.93
2023-01-08T11:01:27.721Z,996.86
2023-01-08T11:02:27.710Z,996.79
2023-01-08T11:03:27.661Z,996.88
2023-01-08T11:04:27.621Z,996.84
2023-01-08T11:05:27.603Z,996.75
2023-01-08T11:06:27.635Z,996.80
2023-01-08T11:07:27.571Z,996.85
2023-01-08T11:08:27.600Z,996.73
2023-01-08T11:09:27.549Z,996.73
2023-01-08T11:10:27.568Z,996.79
2023-01-08T11:11:27.540Z,996.78
2023-01-08T11:12:27.523Z,996.76
2023-01-08T11:13:27.530Z,996.75
2023-01-08T11:14:27.511Z,996.85
2023-01-08T11:15:27.492Z,996.77
2023-01-08T11:16:27.570Z,996.69
2023-01-08T11:17:27.459Z,996.75
2023-01-08T11:18:27.479Z,996.71
2023-01-08T11:19:27.453Z,996.77
2023-01-08T11:20:27.430Z,996.76
2023-01-08T11:21:27.414Z,996.76
2023-01-08T11:22:27.407Z,996.74
2023-01-08T11:23:27.447Z,996.72
2023-01-08T11:24:27.414Z,996.70
2023-01-08T11:25:27.365Z,996.70
2023-01-08T11:26:27.372Z,996.61
2023-01-08T11:27:27.345Z,996.57
2023-01-08T11:28:27.376Z,996.55
2023-01-08T11:29:27.332Z,996.52
2023-01-08T11:30:27.330Z,996.42
2023-01-08T11:31:27.357Z,996.43
2023-01-08T11:32:27.324Z,996.53
2023-01-08T11:33:27.289Z,996.46
2023-01-08T11:34:27.307Z,996.44
2023-01-08T11:35:27.274Z,996.51
2023-01-08T11:36:27.249Z,996.51
2023-01-08T11:37:27.258Z,996.51
2023-01-08T11:38:27.260Z,996.48
2023-01-08T11:39:27.208Z,996.51
2023-01-08T11:40:27.205Z,996.39
2023-01-08T11:41:27.198Z,996.39
2023-01-08T11:42:27.189Z,996.33
2023-01-08T11:43:27.174Z,996.36
2023-01-08T11:44:27.159Z,996.30
2023-01-08T11:45:27.224Z,996.30
2023-01-08T11:46:27.145Z,996.30
2023-01-08T11:47:27.131Z,996.25
2023-01-08T11:48:27.161Z,996.25
2023-01-08T11:49:27.113Z,996.24
2023-01-08T11:50:27.086Z,996.20
2023-01-08T11:51:27.094Z,996.20
2023-01-08T11:52:27.087Z,996.16
2023-01-08T11:53:27.081Z,996.15
2023-01-08T11:54:27.051Z,996.11
2023-01-08T11:55:27.032Z,996.06
2023-01-08T11:56:27.038Z,996.02
2023-01-08T11:57:27.018Z,996.00
2023-01-08T11:58:27.014Z,995.95
2023-01-08T11:59:26.997Z,995.99
2023-01-08T12:00:26.978Z,995.90
2023-01-08T12:01:26.983Z,995.88
2023-01-08T12:02:26.982Z,995.90
2023-01-08T12:03:27.000Z,995.97
2023-01-08T12:04:26.951Z,995.94
2023-01-08T12:05:26.948Z,995.98
2023-01-08T12:06:26.904Z,996.05
2023-01-08T12:07:26.900Z,996.00
2023-01-08T12:08:26.902Z,996.02
2023-01-08T12:09:26.871Z,996.04
2023-01-08T12:10:26.866Z,996.05
2023-01-08T12:11:26.845Z,996.04
2023-01-08T12:12:26.861Z,996.09
2023-01-08T12:13:26.845Z,996.29
2023-01-08T12:14:26.817Z,996.16
2023-01-08T12:15:26.799Z,996.13
2023-01-08T12:16:26.845Z,996.15
2023-01-08T12:17:26.799Z,996.08
2023-01-08T12:18:26.784Z,996.08
2023-01-08T12:19:26.760Z,996.01
2023-01-08T12:20:26.790Z,996.01
2023-01-08T12:21:26.738Z,996.03
2023-01-08T12:22:26.738Z,996.02
2023-01-08T12:23:26.738Z,996.00
2023-01-08T12:24:26.718Z,996.00
2023-01-08T12:25:26.701Z,996.01
2023-01-08T12:26:26.701Z,996.04
2023-01-08T12:27:48.670Z,996.00
2023-01-08T12:28:27.672Z,996.06
2023-01-08T12:29:26.663Z,996.15
2023-01-08T12:30:26.640Z,996.03
2023-01-08T12:31:26.658Z,996.04
2023-01-08T12:32:26.609Z,995.98
2023-01-08T12:33:26.623Z,995.91
2023-01-08T12:34:26.601Z,995.95
2023-01-08T12:35:26.607Z,996.04
2023-01-08T12:36:26.612Z,995.95
2023-01-08T12:37:26.563Z,995.94
2023-01-08T12:38:26.569Z,995.92
2023-01-08T12:39:26.548Z,995.94
2023-01-08T12:40:26.539Z,995.93
2023-01-08T12:41:26.520Z,995.96
2023-01-08T12:42:26.496Z,996.00
2023-01-08T12:43:26.482Z,995.94
2023-01-08T12:44:26.503Z,995.92
2023-01-08T12:45:26.475Z,995.86
2023-01-08T12:46:26.471Z,995.87
2023-01-08T12:47:26.446Z,995.82
2023-01-08T12:48:26.448Z,995.86
2023-01-08T12:49:26.441Z,995.83
2023-01-08T12:50:26.434Z,995.93
2023-01-08T12:51:26.403Z,995.83
2023-01-08T12:52:26.427Z,995.88
2023-01-08T12:53:26.371Z,995.81
2023-01-08T12:54:26.396Z,995.90
2023-01-08T12:55:26.359Z,995.82
2023-01-08T12:56:26.360Z,995.80
2023-01-08T12:57:26.339Z,995.81
2023-01-08T12:58:26.324Z,995.85
2023-01-08T12:59:26.319Z,995.86
2023-01-08T13:00:26.291Z,995.84
2023-01-08T13:01:26.421Z,995.83
2023-01-08T13:02:26.463Z,995.85
2023-01-08T13:03:26.265Z,995.87
2023-01-08T13:04:26.285Z,995.79
2023-01-08T13:05:26.235Z,995.89
2023-01-08T13:06:26.227Z,995.76
2023-01-08T13:07:26.222Z,995.77
2023-01-08T13:08:26.240Z,995.73
2023-01-08T13:09:26.207Z,995.72
2023-01-08T13:10:26.195Z,995.74
2023-01-08T13:11:26.178Z,995.71
2023-01-08T13:12:26.155Z,995.69
2023-01-08T13:13:26.140Z,995.72
2023-01-08T13:14:27.518Z,995.69
2023-01-08T13:15:26.169Z,995.73
2023-01-08T13:16:26.187Z,995.81
2023-01-08T13:17:26.096Z,995.78
2023-01-08T13:18:26.102Z,995.75
2023-01-08T13:19:26.118Z,995.69
2023-01-08T13:20:26.081Z,995.69
2023-01-08T13:21:26.066Z,995.72
2023-01-08T13:22:26.089Z,995.67
2023-01-08T13:23:26.040Z,995.67
2023-01-08T13:24:26.047Z,995.62
2023-01-08T13:25:26.008Z,995.64
2023-01-08T13:26:26.025Z,995.55
2023-01-08T13:27:25.985Z,995.57
2023-01-08T13:28:26.001Z,995.51
2023-01-08T13:29:25.970Z,995.49
2023-01-08T13:30:25.955Z,995.60
2023-01-08T13:31:26.042Z,995.54
2023-01-08T13:32:25.928Z,995.50
2023-01-08T13:33:25.926Z,995.49
2023-01-08T13:34:25.921Z,995.38
2023-01-08T13:35:25.909Z,995.44
2023-01-08T13:36:25.911Z,995.42
2023-01-08T13:37:27.851Z,995.46
2023-01-08T13:38:25.861Z,995.41
2023-01-08T13:39:25.858Z,995.37
2023-01-08T13:40:25.859Z,995.36
2023-01-08T13:41:25.849Z,995.33
2023-01-08T13:42:25.830Z,995.37
2023-01-08T13:43:25.814Z,995.35
2023-01-08T13:44:25.807Z,995.29
2023-01-08T13:45:25.793Z,995.50
2023-01-08T13:46:25.770Z,995.34
2023-01-08T13:47:25.775Z,995.29
2023-01-08T13:48:25.764Z,995.35
2023-01-08T13:49:25.737Z,995.38
2023-01-08T13:50:25.731Z,995.25
2023-01-08T13:51:25.719Z,995.36
2023-01-08T13:52:25.717Z,995.30
2023-01-08T13:53:25.690Z,995.29
2023-01-08T13:54:25.692Z,995.23
2023-01-08T13:55:25.676Z,995.26
2023-01-08T13:56:25.710Z,995.24
2023-01-08T13:57:25.656Z,995.22
2023-01-08T13:58:25.657Z,995.27
2023-01-08T13:59:25.631Z,995.23
2023-01-08T14:00:25.611Z,995.11
2023-01-08T14:01:25.694Z,995.11
2023-01-08T14:02:25.759Z,995.12
2023-01-08T14:03:25.573Z,995.18
2023-01-08T14:04:25.575Z,995.16
2023-01-08T14:05:25.567Z,995.12
2023-01-08T14:06:25.572Z,995.14
2023-01-08T14:07:25.540Z,995.06
2023-01-08T14:08:25.551Z,995.09
2023-01-08T14:09:25.587Z,995.11
2023-01-08T14:10:25.502Z,995.15
2023-01-08T14:11:25.490Z,995.05
2023-01-08T14:12:25.499Z,994.98
2023-01-08T14:13:25.475Z,994.93
2023-01-08T14:14:25.450Z,995.04
2023-01-08T14:15:25.433Z,994.93
2023-01-08T14:16:25.473Z,994.95
2023-01-08T14:17:25.410Z,994.93
2023-01-08T14:18:25.408Z,994.99
2023-01-08T14:19:25.447Z,994.98
2023-01-08T14:20:25.395Z,994.96
2023-01-08T14:21:25.375Z,994.99
2023-01-08T14:22:25.372Z,994.93
2023-01-08T14:23:25.346Z,994.93
2023-01-08T14:24:25.369Z,994.92
2023-01-08T14:25:25.354Z,994.90
2023-01-08T14:26:25.313Z,994.90
2023-01-08T14:27:25.298Z,994.85
2023-01-08T14:28:25.310Z,994.87
2023-01-08T14:29:25.470Z,994.84
2023-01-08T14:30:25.290Z,994.76
2023-01-08T14:31:25.304Z,994.80
2023-01-08T14:32:25.265Z,994.81
2023-01-08T14:33:25.241Z,994.74
2023-01-08T14:34:25.235Z,994.84
2023-01-08T14:35:25.225Z,994.78
2023-01-08T14:36:25.200Z,994.82
2023-01-08T14:37:25.214Z,994.86
2023-01-08T14:38:25.191Z,994.84
2023-01-08T14:39:25.196Z,994.84
2023-01-08T14:40:25.171Z,994.81
2023-01-08T14:41:25.155Z,994.79
2023-01-08T14:42:25.145Z,994.73
2023-01-08T14:43:25.115Z,994.81
2023-01-08T14:44:36.354Z,994.85
2023-01-08T14:45:26.110Z,994.75
2023-01-08T14:46:25.091Z,994.79
2023-01-08T14:47:25.084Z,994.80
2023-01-08T14:48:25.084Z,994.83
2023-01-08T14:49:25.073Z,994.79
2023-01-08T14:50:25.079Z,994.80
2023-01-08T14:51:25.027Z,994.84
2023-01-08T14:52:25.020Z,994.84
2023-01-08T14:53:25.015Z,994.78
2023-01-08T14:54:24.995Z,994.93
2023-01-08T14:55:25.004Z,994.82
2023-01-08T14:56:24.975Z,994.85
2023-01-08T14:57:24.958Z,994.85
2023-01-08T14:58:24.971Z,994.79
2023-01-08T14:59:24.951Z,994.71
2023-01-08T15:00:24.994Z,994.76
2023-01-08T15:01:25.083Z,994.64
2023-01-08T15:02:24.972Z,994.66
2023-01-08T15:03:25.293Z,994.68
2023-01-08T15:04:24.902Z,994.74
2023-01-08T15:05:24.885Z,994.70
2023-01-08T15:06:24.909Z,994.69
2023-01-08T15:07:24.841Z,994.67
2023-01-08T15:08:24.852Z,994.74
2023-01-08T15:09:24.819Z,994.73
2023-01-08T15:10:24.824Z,994.70
2023-01-08T15:11:24.798Z,994.69
2023-01-08T15:12:24.846Z,994.68
2023-01-08T15:13:24.787Z,994.64
2023-01-08T15:14:24.809Z,994.63
2023-01-08T15:15:24.769Z,994.68
2023-01-08T15:16:24.827Z,994.67
2023-01-08T15:17:24.766Z,994.70
2023-01-08T15:18:24.733Z,994.65
2023-01-08T15:19:24.723Z,994.67
2023-01-08T15:20:24.701Z,994.68
2023-01-08T15:21:24.700Z,994.62
2023-01-08T15:22:24.716Z,994.72
2023-01-08T15:23:24.667Z,994.75
2023-01-08T15:24:24.688Z,994.69
2023-01-08T15:25:24.666Z,994.74
2023-01-08T15:26:24.650Z,994.75
2023-01-08T15:27:24.631Z,994.70
2023-01-08T15:28:24.605Z,994.74
2023-01-08T15:29:24.608Z,994.67
2023-01-08T15:30:24.597Z,994.72
2023-01-08T15:31:24.641Z,994.67
2023-01-08T15:32:24.619Z,994.65
2023-01-08T15:33:24.583Z,994.73
2023-01-08T15:34:24.540Z,994.67
2023-01-08T15:35:24.543Z,994.64
2023-01-08T15:36:24.541Z,994.61
2023-01-08T15:37:24.532Z,994.58
2023-01-08T15:38:24.525Z,994.67
2023-01-08T15:39:24.503Z,994.67
2023-01-08T15:40:24.471Z,994.62
2023-01-08T15:41:24.461Z,994.61
2023-01-08T15:42:24.446Z,994.64
2023-01-08T15:43:24.468Z,994.69
2023-01-08T15:44:24.439Z,994.54
2023-01-08T15:45:24.519Z,994.61
2023-01-08T15:46:24.400Z,994.56
2023-01-08T15:47:24.408Z,994.57
2023-01-08T15:48:24.522Z,994.53
2023-01-08T15:49:24.389Z,994.54
2023-01-08T15:50:24.358Z,994.53
2023-01-08T15:51:24.345Z,994.50
2023-01-08T15:52:24.329Z,994.53
2023-01-08T15:53:24.332Z,994.50
2023-01-08T15:54:24.315Z,994.48
2023-01-08T15:55:24.297Z,994.42
2023-01-08T15:56:24.288Z,994.42
2023-01-08T15:57:24.287Z,994.40
2023-01-08T15:58:24.293Z,994.42
2023-01-08T15:59:24.271Z,994.44
2023-01-08T16:00:24.252Z,994.45
2023-01-08T16:01:24.392Z,994.44
2023-01-08T16:02:24.335Z,994.52
2023-01-08T16:03:24.305Z,994.46
2023-01-08T16:04:24.248Z,994.44
2023-01-08T16:05:24.233Z,994.45
2023-01-08T16:06:24.185Z,994.44
2023-01-08T16:07:24.181Z,994.43
2023-01-08T16:08:24.161Z,994.45
2023-01-08T16:09:24.158Z,994.49
2023-01-08T16:10:24.128Z,994.43
2023-01-08T16:11:24.125Z,994.41
2023-01-08T16:12:24.116Z,994.41
2023-01-08T16:13:24.240Z,994.46
2023-01-08T16:14:24.254Z,994.44
2023-01-08T16:15:24.137Z,994.50
2023-01-08T16:16:24.093Z,994.42
2023-01-08T16:17:24.049Z,994.43
2023-01-08T16:18:24.079Z,994.41
2023-01-08T16:19:25.123Z,994.41
2023-01-08T16:20:24.042Z,994.37
2023-01-08T16:21:24.022Z,994.32
2023-01-08T16:22:24.006Z,994.33
2023-01-08T16:23:24.011Z,994.34
2023-01-08T16:24:23.978Z,994.34
2023-01-08T16:25:23.971Z,994.35
2023-01-08T16:26:23.964Z,994.38
2023-01-08T16:27:23.954Z,994.39
2023-01-08T16:28:23.953Z,994.39
2023-01-08T16:29:23.939Z,994.34
2023-01-08T16:30:23.897Z,994.33
2023-01-08T16:31:23.921Z,994.34
2023-01-08T16:32:23.879Z,994.32
2023-01-08T16:33:23.904Z,994.29
2023-01-08T16:34:23.854Z,994.30
2023-01-08T16:35:23.856Z,994.27
2023-01-08T16:36:23.851Z,994.30
2023-01-08T16:37:23.839Z,994.33
2023-01-08T16:38:23.839Z,994.27
2023-01-08T16:39:23.821Z,994.32
2023-01-08T16:40:23.799Z,994.28
2023-01-08T16:41:23.796Z,994.24
2023-01-08T16:42:23.791Z,994.22
2023-01-08T16:43:23.771Z,994.25
2023-01-08T16:44:25.672Z,994.23
2023-01-08T16:45:23.943Z,994.20
2023-01-08T16:46:23.733Z,994.21
2023-01-08T16:47:23.709Z,994.20
2023-01-08T16:48:23.733Z,994.16
2023-01-08T16:49:23.702Z,994.19
2023-01-08T16:50:23.675Z,994.23
2023-01-08T16:51:23.680Z,994.19
2023-01-08T16:52:23.667Z,994.22
2023-01-08T16:53:23.671Z,994.15
2023-01-08T16:54:23.633Z,994.13
2023-01-08T16:55:23.626Z,994.07
2023-01-08T16:56:23.620Z,994.08
2023-01-08T16:57:23.607Z,994.09
2023-01-08T16:58:24.248Z,994.04
2023-01-08T16:59:24.127Z,994.02
2023-01-08T17:00:23.571Z,993.99
2023-01-08T17:01:23.610Z,994.03
2023-01-08T17:02:23.547Z,994.01
2023-01-08T17:03:23.585Z,993.99
2023-01-08T17:04:23.526Z,993.96
2023-01-08T17:05:23.516Z,993.93
2023-01-08T17:06:23.493Z,993.93
2023-01-08T17:07:23.500Z,993.94
2023-01-08T17:08:23.498Z,993.94
2023-01-08T17:09:23.472Z,993.90
2023-01-08T17:10:23.459Z,993.90
2023-01-08T17:11:23.456Z,993.87
2023-01-08T17:12:23.428Z,993.90
2023-01-08T17:13:23.449Z,993.88
2023-01-08T17:14:23.418Z,993.86
2023-01-08T17:15:23.426Z,993.84
2023-01-08T17:16:23.464Z,993.79
2023-01-08T17:17:23.370Z,993.80
2023-01-08T17:18:23.379Z,993.81
2023-01-08T17:19:23.369Z,993.79
2023-01-08T17:20:23.345Z,993.75
2023-01-08T17:21:23.349Z,993.74
2023-01-08T17:22:23.319Z,993.72
2023-01-08T17:23:23.330Z,993.71
2023-01-08T17:24:23.310Z,993.69
2023-01-08T17:25:23.279Z,993.69
2023-01-08T17:26:23.274Z,993.69
2023-01-08T17:27:23.258Z,993.71
2023-01-08T17:28:23.291Z,993.73
2023-01-08T17:29:23.272Z,993.71
2023-01-08T17:30:23.222Z,993.68
2023-01-08T17:31:23.268Z,993.64
2023-01-08T17:32:23.195Z,993.68
2023-01-08T17:33:23.205Z,993.68
2023-01-08T17:34:23.183Z,993.74
2023-01-08T17:35:23.166Z,993.77
2023-01-08T17:36:23.162Z,993.76
2023-01-08T17:37:23.148Z,993.77
2023-01-08T17:38:23.151Z,993.71
2023-01-08T17:39:23.140Z,993.73
2023-01-08T17:40:23.126Z,993.75
2023-01-08T17:41:23.099Z,993.77
2023-01-08T17:42:23.092Z,993.72
2023-01-08T17:43:23.105Z,993.68
2023-01-08T17:44:23.057Z,993.64
2023-01-08T17:45:23.100Z,993.64
2023-01-08T17:46:23.047Z,993.59
2023-01-08T17:47:23.045Z,993.61
2023-01-08T17:48:23.022Z,993.59
2023-01-08T17:49:23.010Z,993.60
2023-01-08T17:50:23.000Z,993.60
2023-01-08T17:51:22.999Z,993.57
2023-01-08T17:52:22.992Z,993.58
2023-01-08T17:53:22.966Z,993.58
2023-01-08T17:54:22.955Z,993.58
2023-01-08T17:55:22.950Z,993.58
2023-01-08T17:56:23.058Z,993.57
2023-01-08T18:01:14.118Z,993.49
2023-01-08T18:01:52.487Z,993.47
2023-01-08T18:02:52.412Z,993.44
2023-01-08T18:03:52.304Z,993.46
2023-01-08T18:04:52.296Z,993.42
2023-01-08T18:05:52.275Z,993.43
2023-01-08T18:06:52.266Z,993.42
2023-01-08T18:07:52.257Z,993.42
2023-01-08T18:08:52.248Z,993.39
2023-01-08T18:09:52.237Z,993.32
2023-01-08T18:10:52.227Z,993.33
2023-01-08T18:11:52.232Z,993.31
2023-01-08T18:12:52.206Z,993.23
2023-01-08T18:13:52.191Z,993.21
2023-01-08T18:14:52.188Z,993.15
2023-01-08T18:15:52.168Z,993.14
2023-01-08T18:16:52.167Z,993.12
2023-01-08T18:17:52.164Z,993.13
2023-01-08T18:18:52.137Z,993.14
2023-01-08T18:19:52.107Z,993.14
2023-01-08T18:20:53.931Z,993.10
2023-01-08T18:21:52.103Z,993.08
2023-01-08T18:22:52.089Z,993.08
2023-01-08T18:23:52.089Z,993.11
2023-01-08T18:24:52.065Z,993.13
2023-01-08T18:25:52.055Z,993.11
2023-01-08T18:26:52.049Z,993.09
2023-01-08T18:27:52.063Z,993.11
2023-01-08T18:28:52.013Z,993.10
2023-01-08T18:29:52.007Z,993.08
2023-01-08T18:30:52.002Z,993.07
2023-01-08T18:31:52.114Z,993.07
2023-01-08T18:32:51.979Z,993.06
2023-01-08T18:33:51.945Z,993.07
2023-01-08T18:34:51.943Z,993.11
2023-01-08T18:35:51.946Z,993.11
2023-01-08T18:36:51.934Z,993.08
2023-01-08T18:37:51.915Z,993.11
2023-01-08T18:38:51.910Z,993.10
2023-01-08T18:39:51.906Z,993.10
2023-01-08T18:40:51.872Z,993.09
2023-01-08T18:41:51.860Z,993.08
2023-01-08T18:42:51.879Z,993.10
2023-01-08T18:43:51.902Z,993.09
2023-01-08T18:44:51.838Z,993.02
2023-01-08T18:45:51.914Z,993.03
2023-01-08T18:46:51.806Z,993.02
2023-01-08T18:47:51.814Z,993.01
2023-01-08T18:48:51.792Z,992.98
2023-01-08T18:49:51.774Z,992.98
2023-01-08T18:50:51.771Z,992.97
2023-01-08T18:51:51.746Z,992.98
2023-01-08T18:52:51.801Z,992.95
2023-01-08T18:53:51.756Z,992.98
2023-01-08T18:54:51.731Z,992.93
2023-01-08T18:55:51.721Z,992.89
2023-01-08T18:56:51.713Z,992.92
2023-01-08T18:57:51.690Z,992.89
2023-01-08T18:58:51.728Z,992.86
2023-01-08T18:59:51.688Z,992.82
2023-01-08T19:00:51.747Z,992.84
2023-01-08T19:01:51.721Z,992.80
2023-01-08T19:02:51.699Z,992.85
2023-01-08T19:03:51.647Z,992.78
2023-01-08T19:04:51.597Z,992.76
2023-01-08T19:05:51.597Z,992.74
2023-01-08T19:06:51.593Z,992.80
2023-01-08T19:07:51.575Z,992.82
2023-01-08T19:08:51.576Z,992.75
2023-01-08T19:09:51.551Z,992.69
2023-01-08T19:10:51.530Z,992.66
2023-01-08T19:11:51.527Z,992.69
2023-01-08T19:12:51.548Z,992.70
2023-01-08T19:13:51.515Z,992.65
2023-01-08T19:14:51.487Z,992.62
2023-01-08T19:15:51.502Z,992.56
2023-01-08T19:16:51.503Z,992.58
2023-01-08T19:17:51.445Z,992.52
2023-01-08T19:18:51.473Z,992.53
2023-01-08T19:19:51.440Z,992.51
2023-01-08T19:20:51.431Z,992.52
2023-01-08T19:21:51.426Z,992.53
2023-01-08T19:22:51.387Z,992.52
2023-01-08T19:23:51.418Z,992.51
2023-01-08T19:24:51.382Z,992.48
2023-01-08T19:25:51.368Z,992.48
2023-01-08T19:26:51.353Z,992.45
2023-01-08T19:27:51.356Z,992.44
2023-01-08T19:28:51.341Z,992.39
2023-01-08T19:29:51.325Z,992.42
2023-01-08T19:30:51.315Z,992.38
2023-01-08T19:31:51.434Z,992.34
2023-01-08T19:32:51.292Z,992.29
2023-01-08T19:33:51.278Z,992.31
2023-01-08T19:34:51.271Z,992.23
2023-01-08T19:35:51.260Z,992.20
2023-01-08T19:36:51.248Z,992.17
2023-01-08T19:37:51.246Z,992.15
2023-01-08T19:38:51.237Z,992.15
2023-01-08T19:39:51.211Z,992.14
2023-01-08T19:40:51.202Z,992.10
2023-01-08T19:41:51.170Z,992.05
2023-01-08T19:42:51.168Z,992.01
2023-01-08T19:43:51.170Z,992.02
2023-01-08T19:44:51.153Z,992.00
2023-01-08T19:45:51.223Z,991.99
2023-01-08T19:46:51.119Z,992.02
2023-01-08T19:47:53.032Z,992.02
2023-01-08T19:48:51.130Z,992.04
2023-01-08T19:49:51.075Z,992.02
2023-01-08T19:50:51.098Z,991.95
2023-01-08T19:51:51.103Z,991.98
2023-01-08T19:52:51.060Z,991.93
2023-01-08T19:53:51.062Z,991.95
2023-01-08T19:54:51.034Z,991.95
2023-01-08T19:55:51.013Z,991.94
2023-01-08T19:56:51.026Z,991.85
2023-01-08T19:57:51.010Z,991.78
2023-01-08T19:58:51.007Z,991.81
2023-01-08T19:59:50.987Z,991.75
2023-01-08T20:00:51.004Z,991.73
2023-01-08T20:01:51.045Z,991.75
2023-01-08T20:02:51.018Z,991.73
2023-01-08T20:03:50.971Z,991.72
2023-01-08T20:04:50.925Z,991.75
2023-01-08T20:05:50.909Z,991.72
2023-01-08T20:06:50.891Z,991.70
2023-01-08T20:07:50.874Z,991.64
2023-01-08T20:08:50.902Z,991.63
